createdAt,value
2023-03-21T00:00:29.932Z,69.404296875
2023-03-21T00:01:29.939Z,69.7275390625
2023-03-21T00:02:30.369Z,69.66015625
2023-03-21T00:03:30.037Z,69.7880859375
2023-03-21T00:04:35.380Z,69.5458984375
2023-03-21T00:05:30.002Z,69.3095703125
2023-03-21T00:06:29.947Z,69.46484375
2023-03-21T00:07:34.809Z,69.6083984375
2023-03-21T00:08:29.929Z,69.59765625
2023-03-21T00:09:30.309Z,69.4619140625
2023-03-21T00:11:29.930Z,69.7607421875
2023-03-21T00:13:46.387Z,69.9384765625
2023-03-21T00:14:45.981Z,69.9287109375
2023-03-21T00:15:57.743Z,69.9482421875
2023-03-21T00:16:46.376Z,70.0478515625
2023-03-21T00:17:46.368Z,70.0478515625
2023-03-21T00:18:48.334Z,70.0859375
2023-03-21T00:19:45.973Z,69.935546875
2023-03-21T00:20:46.149Z,69.9375
2023-03-21T00:22:03.660Z,69.83984375
2023-03-21T00:22:46.326Z,69.76953125
2023-03-21T00:23:45.968Z,69.83203125
2023-03-21T00:24:46.358Z,70.041015625
2023-03-21T00:25:45.951Z,70.197265625
2023-03-21T00:26:46.266Z,70.2177734375
2023-03-21T00:28:01.444Z,70.1552734375
2023-03-21T00:28:46.092Z,70.0673828125
2023-03-21T00:29:48.353Z,70.009765625
2023-03-21T00:30:45.960Z,69.9873046875
2023-03-21T00:31:45.951Z,69.970703125
2023-03-21T00:32:55.328Z,69.9599609375
2023-03-21T00:33:45.970Z,69.7919921875
2023-03-21T00:34:59.616Z,69.76953125
2023-03-21T00:36:02.213Z,69.6865234375
2023-03-21T00:36:45.978Z,69.73828125
2023-03-21T00:37:46.335Z,69.7724609375
2023-03-21T00:38:46.019Z,69.8642578125
2023-03-21T00:39:46.407Z,69.8955078125
2023-03-21T00:40:49.182Z,69.9814453125
2023-03-21T00:41:46.141Z,69.9033203125
2023-03-21T00:42:46.359Z,69.8681640625
2023-03-21T00:43:45.958Z,69.919921875
2023-03-21T00:44:45.958Z,70.0615234375
2023-03-21T00:45:45.962Z,70.1142578125
2023-03-21T00:47:00.549Z,70.3642578125
2023-03-21T00:47:46.518Z,70.4482421875
2023-03-21T00:48:45.957Z,70.6259765625
2023-03-21T00:49:45.966Z,71.0556640625
2023-03-21T00:50:45.939Z,71.345703125
2023-03-21T00:51:48.308Z,71.5322265625
2023-03-21T00:52:46.649Z,71.7421875
2023-03-21T00:53:45.938Z,72.15234375
2023-03-21T00:54:46.373Z,72.4306640625
2023-03-21T00:55:45.977Z,72.7578125
2023-03-21T00:56:45.951Z,72.697265625
2023-03-21T00:57:50.200Z,72.8701171875
2023-03-21T00:58:45.959Z,73.06640625
2023-03-21T00:59:45.960Z,73.193359375
2023-03-21T01:00:45.982Z,73.2939453125
2023-03-21T01:01:46.014Z,73.4501953125
2023-03-21T01:02:54.792Z,73.5986328125
2023-03-21T01:03:45.980Z,73.4091796875
2023-03-21T01:04:45.961Z,73.5810546875
2023-03-21T01:05:46.052Z,73.654296875
2023-03-21T01:06:45.977Z,73.703125
2023-03-21T01:07:46.374Z,73.818359375
2023-03-21T01:08:52.697Z,73.9873046875
2023-03-21T01:09:46.398Z,74.146484375
2023-03-21T01:10:45.973Z,74.408203125
2023-03-21T01:11:45.959Z,74.546875
2023-03-21T01:12:46.378Z,74.76953125
2023-03-21T01:13:54.764Z,75.0517578125
2023-03-21T01:14:45.960Z,75.380859375
2023-03-21T01:15:45.953Z,75.5439453125
2023-03-21T01:16:45.952Z,75.76171875
2023-03-21T01:17:46.376Z,75.947265625
2023-03-21T01:18:45.935Z,76.189453125
2023-03-21T01:19:51.983Z,76.267578125
2023-03-21T01:20:46.070Z,76.37890625
2023-03-21T01:21:45.949Z,76.3134765625
2023-03-21T01:22:46.383Z,76.3916015625
2023-03-21T01:23:45.970Z,76.28125
2023-03-21T01:24:55.430Z,76.4580078125
2023-03-21T01:25:45.940Z,76.447265625
2023-03-21T01:26:45.948Z,76.58203125
2023-03-21T01:27:46.367Z,76.6708984375
2023-03-21T01:28:45.982Z,76.5947265625
2023-03-21T01:29:45.977Z,76.431640625
2023-03-21T01:30:45.965Z,76.2685546875
2023-03-21T01:31:46.068Z,76.095703125
2023-03-21T01:32:46.349Z,75.921875
2023-03-21T01:33:46.089Z,75.79296875
2023-03-21T01:34:45.953Z,75.6318359375
2023-03-21T01:35:53.385Z,75.623046875
2023-03-21T01:36:46.128Z,75.587890625
2023-03-21T01:37:46.365Z,75.595703125
2023-03-21T01:38:45.944Z,75.4609375
2023-03-21T01:39:46.377Z,75.5576171875
2023-03-21T01:40:45.953Z,75.6201171875
2023-03-21T01:41:45.960Z,75.7041015625
2023-03-21T01:42:46.382Z,75.9853515625
2023-03-21T01:43:46.057Z,76.1005859375
2023-03-21T01:44:45.996Z,76.302734375
2023-03-21T01:45:45.966Z,76.5458984375
2023-03-21T01:46:57.430Z,76.771484375
2023-03-21T01:47:46.419Z,77.0322265625
2023-03-21T01:48:46.046Z,77.2939453125
2023-03-21T01:49:46.539Z,77.4609375
2023-03-21T01:50:45.953Z,77.53125
2023-03-21T01:51:46.071Z,77.7265625
2023-03-21T01:52:46.377Z,77.7802734375
2023-03-21T01:53:45.961Z,77.7451171875
2023-03-21T01:54:46.389Z,77.884765625
2023-03-21T01:55:45.928Z,78.21484375
2023-03-21T01:56:46.027Z,78.3759765625
2023-03-21T01:58:04.229Z,78.3251953125
2023-03-21T01:58:46.063Z,78.2724609375
2023-03-21T01:59:45.948Z,78.056640625
2023-03-21T02:00:45.960Z,77.9365234375
2023-03-21T02:01:45.954Z,77.90625
2023-03-21T02:02:46.366Z,77.810546875
2023-03-21T02:03:45.946Z,77.5244140625
2023-03-21T02:04:46.098Z,77.6259765625
2023-03-21T02:05:45.985Z,77.673828125
2023-03-21T02:06:45.958Z,77.30078125
2023-03-21T02:07:46.372Z,77.2578125
2023-03-21T02:08:48.292Z,77.30078125
2023-03-21T02:09:46.367Z,77.216796875
2023-03-21T02:10:45.945Z,77.072265625
2023-03-21T02:11:45.947Z,77.0419921875
2023-03-21T02:12:46.372Z,76.8349609375
2023-03-21T02:13:45.962Z,76.744140625
2023-03-21T02:14:45.973Z,76.779296875
2023-03-21T02:15:45.966Z,76.7666015625
2023-03-21T02:16:46.019Z,76.796875
2023-03-21T02:17:46.381Z,76.740234375
2023-03-21T02:18:46.085Z,76.76953125
2023-03-21T02:19:53.418Z,76.884765625
2023-03-21T02:20:45.958Z,77.1064453125
2023-03-21T02:21:45.952Z,77.0576171875
2023-03-21T02:22:46.374Z,77.2255859375
2023-03-21T02:23:45.966Z,77.5166015625
2023-03-21T02:24:54.420Z,77.83203125
2023-03-21T02:25:45.951Z,77.9765625
2023-03-21T02:26:48.218Z,77.9814453125
2023-03-21T02:27:46.354Z,78.0517578125
2023-03-21T02:28:45.975Z,78.30859375
2023-03-21T02:29:45.913Z,78.544921875
2023-03-21T02:30:51.988Z,78.8505859375
2023-03-21T02:31:45.979Z,78.990234375
2023-03-21T02:32:46.355Z,79.05078125
2023-03-21T02:33:45.939Z,79.421875
2023-03-21T02:34:45.968Z,79.697265625
2023-03-21T02:35:53.713Z,79.7177734375
2023-03-21T02:36:46.012Z,79.755859375
2023-03-21T02:37:52.054Z,79.9677734375
2023-03-21T02:38:45.961Z,80.142578125
2023-03-21T02:39:46.338Z,80.2470703125
2023-03-21T02:40:45.962Z,80.4931640625
2023-03-21T02:41:48.319Z,80.7880859375
2023-03-21T02:42:51.706Z,80.9287109375
2023-03-21T02:43:45.977Z,81.052734375
2023-03-21T02:44:45.962Z,81.2060546875
2023-03-21T02:45:45.960Z,81.2119140625
2023-03-21T02:46:51.249Z,81.4072265625
2023-03-21T02:47:46.451Z,81.5458984375
2023-03-21T02:48:50.894Z,81.64453125
2023-03-21T02:49:45.944Z,81.765625
2023-03-21T02:50:45.952Z,81.84375
2023-03-21T02:51:45.952Z,81.8828125
2023-03-21T02:52:50.826Z,82.0888671875
2023-03-21T02:53:45.959Z,82.1845703125
2023-03-21T02:54:48.602Z,82.3505859375
2023-03-21T02:55:45.960Z,82.451171875
2023-03-21T02:56:46.088Z,82.484375
2023-03-21T02:57:46.723Z,82.6357421875
2023-03-21T02:58:46.052Z,82.69140625
2023-03-21T02:59:54.325Z,82.900390625
2023-03-21T03:00:45.953Z,82.99609375
2023-03-21T03:01:46.092Z,83.0830078125
2023-03-21T03:02:47.525Z,83.11328125
2023-03-21T03:03:48.318Z,83.072265625
2023-03-21T03:04:46.104Z,83.029296875
2023-03-21T03:05:45.963Z,83.1220703125
2023-03-21T03:06:45.935Z,82.814453125
2023-03-21T03:07:46.381Z,82.751953125
2023-03-21T03:08:59.753Z,82.6923828125
2023-03-21T03:09:46.360Z,82.5068359375
2023-03-21T03:10:45.952Z,82.4658203125
2023-03-21T03:11:45.955Z,82.2734375
2023-03-21T03:12:46.361Z,82.134765625
2023-03-21T03:13:46.038Z,82.1083984375
2023-03-21T03:15:02.182Z,81.970703125
2023-03-21T03:15:46.154Z,81.796875
2023-03-21T03:16:45.964Z,81.712890625
2023-03-21T03:17:46.442Z,81.5087890625
2023-03-21T03:18:46.071Z,81.28125
2023-03-21T03:19:50.642Z,81.3125
2023-03-21T03:20:45.971Z,81.228515625
2023-03-21T03:21:45.947Z,80.8955078125
2023-03-21T03:22:46.447Z,81.001953125
2023-03-21T03:23:45.949Z,80.958984375
2023-03-21T03:24:46.358Z,81.0380859375
2023-03-21T03:25:48.396Z,80.9892578125
2023-03-21T03:26:46.037Z,81.0634765625
2023-03-21T03:27:46.374Z,81.1806640625
2023-03-21T03:28:46.039Z,81.3310546875
2023-03-21T03:29:45.960Z,81.490234375
2023-03-21T03:30:57.472Z,81.78125
2023-03-21T03:31:46.242Z,81.892578125
2023-03-21T03:32:46.352Z,82.291015625
2023-03-21T03:33:45.960Z,82.43359375
2023-03-21T03:34:45.972Z,82.607421875
2023-03-21T03:35:50.323Z,82.61328125
2023-03-21T03:36:48.347Z,82.76171875
2023-03-21T03:37:46.384Z,83.0947265625
2023-03-21T03:38:45.947Z,83.265625
2023-03-21T03:39:46.357Z,83.5263671875
2023-03-21T03:40:46.071Z,83.701171875
2023-03-21T03:42:06.103Z,83.8642578125
2023-03-21T03:42:46.351Z,83.9306640625
2023-03-21T03:43:45.976Z,84.0693359375
2023-03-21T03:44:46.078Z,84.1328125
2023-03-21T03:45:45.949Z,84.3095703125
2023-03-21T03:46:46.016Z,84.36328125
2023-03-21T03:47:56.673Z,84.4501953125
2023-03-21T03:48:46.094Z,84.5458984375
2023-03-21T03:49:45.955Z,84.623046875
2023-03-21T03:50:45.961Z,84.6552734375
2023-03-21T03:51:46.080Z,84.54296875
2023-03-21T03:52:55.581Z,84.7607421875
2023-03-21T03:53:45.949Z,84.8583984375
2023-03-21T03:54:46.395Z,84.998046875
2023-03-21T03:55:46.101Z,84.7509765625
2023-03-21T03:56:46.032Z,84.6474609375
2023-03-21T03:57:46.370Z,84.533203125
2023-03-21T03:58:48.333Z,84.5126953125
2023-03-21T03:59:45.963Z,84.53125
2023-03-21T04:00:45.960Z,84.630859375
2023-03-21T04:01:46.003Z,84.6640625
2023-03-21T04:02:46.458Z,84.533203125
2023-03-21T04:03:50.628Z,84.5068359375
2023-03-21T04:04:46.113Z,84.4345703125
2023-03-21T04:05:45.942Z,84.318359375
2023-03-21T04:06:45.965Z,84.0078125
2023-03-21T04:07:46.395Z,83.986328125
2023-03-21T04:08:45.974Z,84.0322265625
2023-03-21T04:09:50.833Z,83.875
2023-03-21T04:10:45.978Z,84.119140625
2023-03-21T04:11:46.097Z,84.001953125
2023-03-21T04:12:46.359Z,83.9150390625
2023-03-21T04:13:46.079Z,83.689453125
2023-03-21T04:14:47.405Z,83.7041015625
2023-03-21T04:15:46.094Z,83.5400390625
2023-03-21T04:16:45.990Z,83.556640625
2023-03-21T04:17:46.372Z,83.3720703125
2023-03-21T04:18:45.961Z,83.2734375
2023-03-21T04:19:45.964Z,82.91796875
2023-03-21T04:20:48.995Z,82.736328125
2023-03-21T04:21:45.953Z,82.5419921875
2023-03-21T04:22:46.494Z,82.416015625
2023-03-21T04:23:45.989Z,82.3955078125
2023-03-21T04:24:46.380Z,82.3642578125
2023-03-21T04:25:55.792Z,82.0546875
2023-03-21T04:26:46.122Z,81.8203125
2023-03-21T04:27:46.356Z,81.9580078125
2023-03-21T04:28:46.058Z,82.12890625
2023-03-21T04:29:46.100Z,82.162109375
2023-03-21T04:31:00.389Z,82.3115234375
2023-03-21T04:31:48.502Z,82.4130859375
2023-03-21T04:32:46.372Z,82.4580078125
2023-03-21T04:33:46.094Z,82.3876953125
2023-03-21T04:34:45.947Z,82.619140625
2023-03-21T04:35:46.090Z,82.607421875
2023-03-21T04:36:45.959Z,82.6044921875
2023-03-21T04:37:46.391Z,82.7216796875
2023-03-21T04:38:45.994Z,82.6416015625
2023-03-21T04:39:46.368Z,82.7978515625
2023-03-21T04:40:45.972Z,83.1494140625
2023-03-21T04:41:45.999Z,83.1142578125
2023-03-21T04:42:50.822Z,83.2529296875
2023-03-21T04:43:45.971Z,83.439453125
2023-03-21T04:44:45.937Z,83.4501953125
2023-03-21T04:45:46.013Z,83.3837890625
2023-03-21T04:46:46.114Z,83.412109375
2023-03-21T04:47:46.406Z,83.615234375
2023-03-21T04:48:46.034Z,83.4873046875
2023-03-21T04:49:45.947Z,83.4736328125
2023-03-21T04:50:45.963Z,83.2197265625
2023-03-21T04:51:45.953Z,82.953125
2023-03-21T04:52:46.367Z,82.630859375
2023-03-21T04:53:48.263Z,82.337890625
2023-03-21T04:54:46.365Z,82.0615234375
2023-03-21T04:55:45.990Z,81.7490234375
2023-03-21T04:56:45.953Z,81.3798828125
2023-03-21T04:57:46.356Z,81.2646484375
2023-03-21T04:58:45.957Z,81.2177734375
2023-03-21T04:59:45.978Z,81.0673828125
2023-03-21T05:00:45.995Z,80.79296875
2023-03-21T05:01:46.010Z,80.783203125
2023-03-21T05:02:46.367Z,80.5439453125
2023-03-21T05:03:46.073Z,80.37109375
2023-03-21T05:04:48.395Z,80.2080078125
2023-03-21T05:05:45.960Z,80.1064453125
2023-03-21T05:06:45.948Z,79.9775390625
2023-03-21T05:07:46.343Z,80.115234375
2023-03-21T05:08:46.090Z,80.1103515625
2023-03-21T05:09:46.380Z,80.322265625
2023-03-21T05:10:46.055Z,80.5107421875
2023-03-21T05:11:45.974Z,80.8671875
2023-03-21T05:12:46.364Z,81.1474609375
2023-03-21T05:13:45.965Z,81.4189453125
2023-03-21T05:14:45.952Z,81.6474609375
2023-03-21T05:15:48.285Z,81.9130859375
2023-03-21T05:16:45.961Z,82.013671875
2023-03-21T05:17:46.382Z,81.927734375
2023-03-21T05:18:46.093Z,81.8388671875
2023-03-21T05:19:45.973Z,81.7744140625
2023-03-21T05:20:45.952Z,81.77734375
2023-03-21T05:21:46.092Z,81.5576171875
2023-03-21T05:22:46.365Z,81.61328125
2023-03-21T05:23:45.978Z,81.4384765625
2023-03-21T05:24:46.358Z,81.32421875
2023-03-21T05:25:45.963Z,81.4638671875
2023-03-21T05:26:48.356Z,81.5654296875
2023-03-21T05:27:46.384Z,81.4833984375
2023-03-21T05:28:46.080Z,81.3232421875
2023-03-21T05:29:45.968Z,81.1181640625
2023-03-21T05:30:46.035Z,81.0419921875
2023-03-21T05:31:45.965Z,80.955078125
2023-03-21T05:32:46.340Z,80.96875
2023-03-21T05:33:46.093Z,80.8818359375
2023-03-21T05:34:45.965Z,80.896484375
2023-03-21T05:35:46.084Z,80.873046875
2023-03-21T05:36:45.962Z,80.962890625
2023-03-21T05:37:50.795Z,80.720703125
2023-03-21T05:38:45.965Z,80.5810546875
2023-03-21T05:39:46.370Z,80.4404296875
2023-03-21T05:40:45.950Z,80.3955078125
2023-03-21T05:41:45.945Z,80.3544921875
2023-03-21T05:42:46.568Z,80.3173828125
2023-03-21T05:43:45.937Z,80.2490234375
2023-03-21T05:44:45.980Z,79.9638671875
2023-03-21T05:45:45.981Z,79.5615234375
2023-03-21T05:46:45.978Z,79.4033203125
2023-03-21T05:47:46.389Z,79.3681640625
2023-03-21T05:48:48.280Z,79
2023-03-21T05:49:45.959Z,78.724609375
2023-03-21T05:50:45.955Z,78.3798828125
2023-03-21T05:51:45.961Z,78.140625
2023-03-21T05:52:47.537Z,77.5908203125
2023-03-21T05:53:46.104Z,77.2216796875
2023-03-21T05:54:46.365Z,77.013671875
2023-03-21T05:55:45.949Z,76.50390625
2023-03-21T05:56:46.090Z,76.1923828125
2023-03-21T05:57:46.349Z,75.8349609375
2023-03-21T05:58:45.952Z,75.5537109375
2023-03-21T05:59:48.279Z,75.2587890625
2023-03-21T06:00:45.977Z,74.9833984375
2023-03-21T06:01:45.973Z,75.0595703125
2023-03-21T06:02:46.406Z,74.943359375
2023-03-21T06:03:46.187Z,74.7822265625
2023-03-21T06:04:46.057Z,74.5888671875
2023-03-21T06:05:45.970Z,74.326171875
2023-03-21T06:06:45.955Z,74.2421875
2023-03-21T06:07:54.826Z,73.984375
2023-03-21T06:08:45.945Z,73.9326171875
2023-03-21T06:09:46.367Z,73.814453125
2023-03-21T06:10:48.321Z,73.5859375
2023-03-21T06:11:46.344Z,73.5205078125
2023-03-21T06:12:46.339Z,73.4677734375
2023-03-21T06:13:45.942Z,73.455078125
2023-03-21T06:14:45.978Z,73.3828125
2023-03-21T06:15:46.007Z,73.56640625
2023-03-21T06:16:46.105Z,74.0791015625
2023-03-21T06:17:46.382Z,74.15234375
2023-03-21T06:18:45.945Z,74.421875
2023-03-21T06:19:45.953Z,74.7138671875
2023-03-21T06:20:46.087Z,74.9638671875
2023-03-21T06:21:48.317Z,75.091796875
2023-03-21T06:22:46.342Z,75.4453125
2023-03-21T06:23:45.964Z,75.6875
2023-03-21T06:24:46.372Z,75.73046875
2023-03-21T06:25:45.948Z,75.9091796875
2023-03-21T06:26:45.966Z,76.029296875
2023-03-21T06:27:46.365Z,75.2236328125
2023-03-21T06:28:45.979Z,72.458984375
2023-03-21T06:29:45.964Z,71.095703125
2023-03-21T06:30:45.935Z,70.771484375
2023-03-21T06:31:46.030Z,70.640625
2023-03-21T06:32:50.748Z,70.75390625
2023-03-21T06:33:45.914Z,70.888671875
2023-03-21T06:34:45.948Z,71.0791015625
2023-03-21T06:35:45.990Z,71.3701171875
2023-03-21T06:36:45.958Z,71.666015625
2023-03-21T06:37:46.382Z,71.58203125
2023-03-21T06:38:45.960Z,71.158203125
2023-03-21T06:39:46.376Z,70.337890625
2023-03-21T06:40:45.950Z,69.5361328125
2023-03-21T06:41:45.952Z,69.173828125
2023-03-21T06:42:46.354Z,68.54296875
2023-03-21T06:43:48.371Z,67.3134765625
2023-03-21T06:44:46.045Z,64.404296875
2023-03-21T06:45:45.955Z,61.4775390625
2023-03-21T06:46:45.971Z,60.1923828125
2023-03-21T06:47:46.438Z,59.6220703125
2023-03-21T06:48:45.979Z,59.9794921875
2023-03-21T06:49:45.964Z,60.6796875
2023-03-21T06:50:45.967Z,61.3759765625
2023-03-21T06:51:45.947Z,62.353515625
2023-03-21T06:52:46.409Z,63.349609375
2023-03-21T06:53:45.961Z,64.263671875
2023-03-21T06:54:50.791Z,64.927734375
2023-03-21T06:55:45.954Z,65.634765625
2023-03-21T06:56:45.947Z,66.2470703125
2023-03-21T06:57:46.364Z,66.685546875
2023-03-21T06:58:45.987Z,67.0556640625
2023-03-21T06:59:45.981Z,67.251953125
2023-03-21T07:00:46.020Z,67.5029296875
2023-03-21T07:01:45.957Z,67.6591796875
2023-03-21T07:02:46.393Z,67.5595703125
2023-03-21T07:03:45.962Z,67.6337890625
2023-03-21T07:04:45.955Z,67.6767578125
2023-03-21T07:05:48.296Z,67.814453125
2023-03-21T07:06:45.957Z,67.6240234375
2023-03-21T07:07:46.364Z,67.4384765625
2023-03-21T07:08:45.958Z,67.291015625
2023-03-21T07:09:46.359Z,67.0625
2023-03-21T07:10:46.091Z,66.943359375
2023-03-21T07:11:45.932Z,66.6298828125
2023-03-21T07:12:46.361Z,66.3955078125
2023-03-21T07:13:45.966Z,65.916015625
2023-03-21T07:14:45.985Z,65.5087890625
2023-03-21T07:15:45.942Z,64.7587890625
2023-03-21T07:16:48.466Z,64.345703125
2023-03-21T07:17:46.365Z,63.68359375
2023-03-21T07:18:45.939Z,62.5185546875
2023-03-21T07:19:46.068Z,61.6025390625
2023-03-21T07:20:45.960Z,60.7978515625
2023-03-21T07:21:45.967Z,60.0029296875
2023-03-21T07:22:46.360Z,59.771484375
2023-03-21T07:23:45.943Z,59.5947265625
2023-03-21T07:24:50.952Z,59.3564453125
2023-03-21T07:25:46.074Z,59.1904296875
2023-03-21T07:26:45.944Z,59.0205078125
2023-03-21T07:27:50.783Z,58.9580078125
2023-03-21T07:28:45.962Z,59.2919921875
2023-03-21T07:29:46.090Z,59.71484375
2023-03-21T07:30:46.119Z,60.173828125
2023-03-21T07:31:45.965Z,60.41796875
2023-03-21T07:32:46.350Z,60.42578125
2023-03-21T07:33:45.978Z,60.0634765625
2023-03-21T07:34:45.968Z,59.353515625
2023-03-21T07:35:46.015Z,58.5546875
2023-03-21T07:36:45.964Z,57.3544921875
2023-03-21T07:37:46.378Z,56.6845703125
2023-03-21T07:38:48.349Z,56.029296875
2023-03-21T07:39:46.372Z,55.984375
2023-03-21T07:40:46.092Z,56.15625
2023-03-21T07:41:45.968Z,56.3486328125
2023-03-21T07:42:46.361Z,56.0478515625
2023-03-21T07:43:45.995Z,56.111328125
2023-03-21T07:44:46.001Z,56.1796875
2023-03-21T07:45:45.975Z,56.505859375
2023-03-21T07:46:45.970Z,56.4208984375
2023-03-21T07:47:46.371Z,56.2724609375
2023-03-21T07:48:45.979Z,55.96484375
2023-03-21T07:49:48.291Z,55.7080078125
2023-03-21T07:50:46.025Z,55.8642578125
2023-03-21T07:51:45.936Z,56.0322265625
2023-03-21T07:52:46.377Z,55.794921875
2023-03-21T07:53:46.108Z,55.63671875
2023-03-21T07:54:46.370Z,55.0712890625
2023-03-21T07:55:45.969Z,54.802734375
2023-03-21T07:56:46.076Z,54.7734375
2023-03-21T07:57:46.346Z,54.3408203125
2023-03-21T07:58:45.935Z,54.0185546875
2023-03-21T07:59:45.951Z,54.3876953125
2023-03-21T08:00:48.317Z,54.45703125
2023-03-21T08:01:45.978Z,54.1982421875
2023-03-21T08:02:46.349Z,53.8486328125
2023-03-21T08:03:46.013Z,53.0966796875
2023-03-21T08:04:45.956Z,52.83203125
2023-03-21T08:05:45.972Z,52.7021484375
2023-03-21T08:06:45.968Z,52.2587890625
2023-03-21T08:07:46.365Z,51.6962890625
2023-03-21T08:08:45.962Z,51.2900390625
2023-03-21T08:09:46.353Z,51.111328125
2023-03-21T08:10:45.959Z,50.7587890625
2023-03-21T08:11:48.313Z,50.3896484375
2023-03-21T08:12:46.353Z,49.6943359375
2023-03-21T08:13:45.939Z,49.5859375
2023-03-21T08:14:45.965Z,49.822265625
2023-03-21T08:15:45.945Z,50.083984375
2023-03-21T08:16:46.018Z,50.1572265625
2023-03-21T08:17:46.392Z,50.294921875
2023-03-21T08:18:45.972Z,50.1904296875
2023-03-21T08:19:45.964Z,49.5009765625
2023-03-21T08:20:45.970Z,49.2099609375
2023-03-21T08:21:45.980Z,49.1240234375
2023-03-21T08:22:48.742Z,48.6298828125
2023-03-21T08:23:46.064Z,48.7177734375
2023-03-21T08:24:46.349Z,48.17578125
2023-03-21T08:25:45.944Z,47.9208984375
2023-03-21T08:26:46.066Z,47.00390625
2023-03-21T08:27:46.362Z,45.7802734375
2023-03-21T08:28:45.960Z,45.5537109375
2023-03-21T08:29:45.949Z,45.556640625
2023-03-21T08:30:46.024Z,44.95703125
2023-03-21T08:31:45.969Z,44.6142578125
2023-03-21T08:32:46.363Z,45.318359375
2023-03-21T08:33:48.327Z,45.9111328125
2023-03-21T08:34:45.981Z,46.181640625
2023-03-21T08:35:46.337Z,46.37890625
2023-03-21T08:36:46.089Z,46.5361328125
2023-03-21T08:37:46.411Z,46.7705078125
2023-03-21T08:38:45.979Z,46.5966796875
2023-03-21T08:39:46.439Z,46.94921875
2023-03-21T08:40:45.950Z,47.095703125
2023-03-21T08:41:46.048Z,46.900390625
2023-03-21T08:42:46.382Z,46.3955078125
2023-03-21T08:43:45.950Z,46.2138671875
2023-03-21T08:44:48.336Z,45.7099609375
2023-03-21T08:45:45.971Z,45.083984375
2023-03-21T08:46:46.023Z,44.65625
2023-03-21T08:47:46.422Z,43.7509765625
2023-03-21T08:48:46.374Z,43.63671875
2023-03-21T08:49:46.063Z,44.267578125
2023-03-21T08:50:45.951Z,43.9228515625
2023-03-21T08:51:45.950Z,44.1376953125
2023-03-21T08:52:46.371Z,44.7998046875
2023-03-21T08:53:46.098Z,45.66796875
2023-03-21T08:54:46.388Z,46.1826171875
2023-03-21T08:55:48.276Z,46.5107421875
2023-03-21T08:56:45.951Z,46.5888671875
2023-03-21T08:57:46.388Z,46.4697265625
2023-03-21T08:58:45.969Z,46.7978515625
2023-03-21T08:59:46.038Z,47.0654296875
2023-03-21T09:00:45.967Z,47.9150390625
2023-03-21T09:01:46.012Z,48.6796875
2023-03-21T09:02:46.370Z,48.7763671875
2023-03-21T09:03:45.965Z,48.91796875
2023-03-21T09:04:45.996Z,49.416015625
2023-03-21T09:05:45.969Z,48.8544921875
2023-03-21T09:06:48.312Z,48.7451171875
2023-03-21T09:07:46.390Z,49.1044921875
2023-03-21T09:08:46.001Z,49.1669921875
2023-03-21T09:09:50.895Z,49.078125
2023-03-21T09:10:45.959Z,48.5908203125
2023-03-21T09:11:46.068Z,47.431640625
2023-03-21T09:12:46.375Z,47.4111328125
2023-03-21T09:13:45.962Z,47.1181640625
2023-03-21T09:14:45.989Z,46.5126953125
2023-03-21T09:15:46.075Z,45.69921875
2023-03-21T09:16:45.957Z,45.953125
2023-03-21T09:17:50.776Z,46.2744140625
2023-03-21T09:18:45.936Z,46.33984375
2023-03-21T09:19:45.962Z,46.5283203125
2023-03-21T09:20:45.974Z,46.76953125
2023-03-21T09:21:45.957Z,47.1484375
2023-03-21T09:22:46.397Z,47.482421875
2023-03-21T09:23:45.975Z,47.705078125
2023-03-21T09:24:46.364Z,47.76953125
2023-03-21T09:25:45.933Z,47.787109375
2023-03-21T09:26:45.944Z,47.697265625
2023-03-21T09:27:46.373Z,47.119140625
2023-03-21T09:28:48.295Z,46.0478515625
2023-03-21T09:29:45.987Z,46.1083984375
2023-03-21T09:30:45.967Z,46.00390625
2023-03-21T09:31:46.025Z,45.9619140625
2023-03-21T09:32:46.370Z,45.5654296875
2023-03-21T09:33:45.952Z,45.2666015625
2023-03-21T09:34:45.964Z,45.5634765625
2023-03-21T09:35:46.054Z,45.251953125
2023-03-21T09:36:46.077Z,45.0400390625
2023-03-21T09:37:46.397Z,45.4443359375
2023-03-21T09:38:45.975Z,45.134765625
2023-03-21T09:39:50.779Z,45.4560546875
2023-03-21T09:40:45.995Z,45.87109375
2023-03-21T09:41:45.944Z,46.1171875
2023-03-21T09:42:46.358Z,46.0830078125
2023-03-21T09:43:45.966Z,46.1533203125
2023-03-21T09:44:46.089Z,46.38671875
2023-03-21T09:45:45.968Z,46.5234375
2023-03-21T09:46:46.153Z,47.05859375
2023-03-21T09:47:46.387Z,47.0810546875
2023-03-21T09:48:54.452Z,46.517578125
2023-03-21T09:49:45.943Z,46.37109375
2023-03-21T09:50:48.329Z,46.6650390625
2023-03-21T09:51:46.128Z,47.48828125
2023-03-21T09:52:46.363Z,47.671875
2023-03-21T09:53:45.971Z,47.458984375
2023-03-21T09:54:46.378Z,47.5009765625
2023-03-21T09:55:45.972Z,47.1689453125
2023-03-21T09:56:45.992Z,46.919921875
2023-03-21T09:57:46.352Z,46.490234375
2023-03-21T09:58:45.952Z,46.0810546875
2023-03-21T09:59:45.950Z,45.9736328125
2023-03-21T10:00:46.062Z,46
2023-03-21T10:01:48.308Z,45.6240234375
2023-03-21T10:02:46.330Z,45.447265625
2023-03-21T10:03:45.965Z,45.134765625
2023-03-21T10:04:45.991Z,44.96875
2023-03-21T10:05:45.984Z,45.01171875
2023-03-21T10:06:45.960Z,44.77734375
2023-03-21T10:07:46.376Z,44.7119140625
2023-03-21T10:08:45.977Z,44.349609375
2023-03-21T10:09:46.366Z,43.66796875
2023-03-21T10:10:46.099Z,42.9013671875
2023-03-21T10:11:45.956Z,42.9453125
2023-03-21T10:12:50.841Z,42.876953125
2023-03-21T10:13:46.098Z,43.234375
2023-03-21T10:14:46.265Z,43.4130859375
2023-03-21T10:15:45.934Z,43.5205078125
2023-03-21T10:16:45.985Z,43.7890625
2023-03-21T10:17:46.370Z,43.8330078125
2023-03-21T10:18:45.966Z,44.248046875
2023-03-21T10:19:45.959Z,44.0009765625
2023-03-21T10:20:45.946Z,43.0830078125
2023-03-21T10:21:59.659Z,43.115234375
2023-03-21T10:22:46.381Z,42.93359375
2023-03-21T10:23:48.275Z,42.9873046875
2023-03-21T10:24:46.348Z,42.564453125
2023-03-21T10:25:46.076Z,42.458984375
2023-03-21T10:26:45.969Z,41.8330078125
2023-03-21T10:27:46.385Z,41.6875
2023-03-21T10:28:52.840Z,41.4482421875
2023-03-21T10:29:45.962Z,41.9111328125
2023-03-21T10:30:45.972Z,41.67578125
2023-03-21T10:31:46.040Z,41.720703125